EDT,Max TemperatureF,Mean TemperatureF,Min TemperatureF,Max Dew PointF,MeanDew PointF,Min DewpointF,Max Humidity, Mean Humidity, Min Humidity, Max Sea Level PressureIn, Mean Sea Level PressureIn, Min Sea Level PressureIn, Max VisibilityMiles, Mean VisibilityMiles, Min VisibilityMiles, Max Wind SpeedMPH, Mean Wind SpeedMPH, Max Gust SpeedMPH,PrecipitationIn, CloudCover, Events, WindDirDegrees
2012-9-1,68,56,44,46,43,39,82,60,37,30.07,29.98,29.78,10,10,1,13,8,21,0.00,1,,334
2012-9-2,66,52,39,54,44,34,88,75,55,30.10,30.07,30.03,10,9,0,14,1,,0.01,4,,145
2012-9-3,71,58,44,54,48,41,94,73,38,30.15,30.08,30.02,10,7,0,8,1,,0.00,4,,178
2012-9-4,78,64,51,61,55,46,88,71,50,30.02,29.95,29.87,10,9,0,12,4,,0.00,2,,171
2012-9-5,71,63,55,61,56,50,88,77,53,29.87,29.78,29.73,10,10,3,16,6,17,0.50,5,,77
2012-9-6,69,61,53,55,53,48,88,75,60,29.84,29.81,29.78,10,10,0,13,7,,0.00,5,,7
2012-9-7,75,63,51,63,55,46,88,80,57,29.84,29.80,29.78,10,10,2,9,4,,0.02,5,,150
2012-9-8,75,64,53,64,59,48,94,79,65,29.83,29.71,29.49,10,8,0,28,8,36,0.00,7,,161
2012-9-9,68,60,51,64,50,46,88,70,52,29.78,29.67,29.46,10,10,2,17,9,26,0.57,6,,246
2012-9-10,62,52,42,46,44,39,87,70,52,29.86,29.80,29.75,10,9,0,18,5,23,0.00,5,,338
2012-9-11,66,54,42,45,40,36,87,60,37,30.11,29.99,29.86,10,10,10,16,7,21,0.00,0,,294
2012-9-12,77,59,41,55,48,36,82,66,44,30.21,30.16,30.12,10,10,10,15,3,17,0.00,0,,196
2012-9-13,80,66,51,57,54,48,88,64,42,30.19,30.15,30.11,10,10,10,14,6,17,0.00,0,,206
2012-9-14,78,64,50,63,55,46,88,72,47,30.14,30.07,29.96,10,10,0,15,4,18,0.00,1,,150
2012-9-15,69,58,46,59,50,36,82,70,51,29.96,29.84,29.76,10,10,10,22,10,28,0.08,6,,210
2012-9-16,60,50,41,36,35,34,76,56,36,29.86,29.79,29.77,10,10,10,24,9,30,0.00,1,,254
2012-9-17,69,54,39,48,41,34,87,62,33,29.95,29.91,29.85,10,10,10,10,5,,0.00,0,,231
2012-9-18,69,58,46,55,49,43,88,72,53,29.97,29.89,29.68,10,10,10,22,8,34,0.07,3,,155
2012-9-19,66,52,37,63,46,34,88,70,44,30.15,29.81,29.55,10,10,4,28,16,41,0.54,5,,232
2012-9-20,60,45,30,39,33,27,87,66,31,30.27,30.19,30.12,10,8,0,10,2,17,0.00,2,,131
2012-9-21,60,46,33,48,40,28,87,76,55,30.14,30.10,30.03,10,8,0,10,2,,0.00,3,,148
2012-9-22,73,63,53,64,57,50,94,85,73,30.03,29.88,29.73,10,9,1,14,6,26,0.01,8,,146
2012-9-23,64,54,42,59,46,34,88,66,42,29.93,29.79,29.67,10,10,3,16,8,24,0.04,4,,229
2012-9-24,60,48,35,37,35,28,87,66,39,30.03,29.96,29.92,10,10,5,16,4,21,0.00,1,,236
2012-9-25,64,48,33,43,37,28,87,64,42,29.98,29.93,29.90,10,10,3,17,4,24,0.00,3,,190
2012-9-26,60,53,46,52,48,41,88,81,71,29.99,29.92,29.83,10,10,7,17,6,23,0.12,5,,178
2012-9-27,55,44,33,48,36,28,87,67,44,30.17,30.03,29.88,10,10,3,18,7,23,0.04,2,,319
2012-9-28,57,44,30,39,33,25,87,70,47,30.21,30.14,30.08,10,10,1,10,1,,0.00,1,,136
2012-9-29,51,48,44,46,43,37,87,79,66,30.08,30.01,29.93,10,10,4,17,5,,0.18,8,,40
2012-9-30,62,56,51,59,53,46,88,86,77,29.93,29.76,29.48,10,9,4,20,8,25,0.66,8,,33